sensor_id;sensor_type;location;lat;lon;timestamp;temperature;humidity
1956;DHT22;978;48.314;11.562;2022-09-06T00:01:33;22.70;90.60
1956;DHT22;978;48.314;11.562;2022-09-06T00:04:02;22.70;90.60
1956;DHT22;978;48.314;11.562;2022-09-06T00:06:30;22.80;90.60
1956;DHT22;978;48.314;11.562;2022-09-06T00:08:58;22.70;90.60
1956;DHT22;978;48.314;11.562;2022-09-06T00:11:26;22.70;90.60
1956;DHT22;978;48.314;11.562;2022-09-06T00:13:54;22.70;90.60
1956;DHT22;978;48.314;11.562;2022-09-06T00:16:23;22.80;90.60
1956;DHT22;978;48.314;11.562;2022-09-06T00:18:52;22.70;90.60
1956;DHT22;978;48.314;11.562;2022-09-06T00:21:22;22.70;90.60
1956;DHT22;978;48.314;11.562;2022-09-06T00:23:50;22.70;90.60
1956;DHT22;978;48.314;11.562;2022-09-06T00:26:17;22.70;90.60
1956;DHT22;978;48.314;11.562;2022-09-06T00:28:44;22.70;90.60
1956;DHT22;978;48.314;11.562;2022-09-06T00:31:13;22.80;90.60
1956;DHT22;978;48.314;11.562;2022-09-06T00:33:43;22.70;90.60
1956;DHT22;978;48.314;11.562;2022-09-06T00:36:11;22.70;90.60
1956;DHT22;978;48.314;11.562;2022-09-06T00:38:41;22.70;90.60
1956;DHT22;978;48.314;11.562;2022-09-06T00:41:13;22.70;90.60
1956;DHT22;978;48.314;11.562;2022-09-06T00:43:41;22.80;90.60
1956;DHT22;978;48.314;11.562;2022-09-06T00:46:14;22.70;90.60
1956;DHT22;978;48.314;11.562;2022-09-06T00:48:43;22.70;90.60
1956;DHT22;978;48.314;11.562;2022-09-06T00:51:12;22.70;90.60
1956;DHT22;978;48.314;11.562;2022-09-06T00:53:42;22.70;90.60
1956;DHT22;978;48.314;11.562;2022-09-06T00:56:10;22.70;90.60
1956;DHT22;978;48.314;11.562;2022-09-06T00:58:40;22.80;90.60
1956;DHT22;978;48.314;11.562;2022-09-06T01:01:08;22.70;90.60
1956;DHT22;978;48.314;11.562;2022-09-06T01:03:36;22.70;90.60
1956;DHT22;978;48.314;11.562;2022-09-06T01:06:15;22.70;90.60
1956;DHT22;978;48.314;11.562;2022-09-06T01:08:58;22.70;90.60
1956;DHT22;978;48.314;11.562;2022-09-06T01:14:24;22.70;90.60
1956;DHT22;978;48.314;11.562;2022-09-06T01:16:59;22.70;90.60
1956;DHT22;978;48.314;11.562;2022-09-06T01:22:58;22.70;90.60
1956;DHT22;978;48.314;11.562;2022-09-06T01:25:42;22.70;90.60
1956;DHT22;978;48.314;11.562;2022-09-06T01:28:26;22.70;90.60
1956;DHT22;978;48.314;11.562;2022-09-06T01:31:03;22.70;90.50
1956;DHT22;978;48.314;11.562;2022-09-06T01:33:40;22.80;90.60
1956;DHT22;978;48.314;11.562;2022-09-06T01:36:13;22.70;90.50
1956;DHT22;978;48.314;11.562;2022-09-06T01:38:41;22.80;90.50
1956;DHT22;978;48.314;11.562;2022-09-06T01:41:09;22.70;90.40
1956;DHT22;978;48.314;11.562;2022-09-06T01:43:40;22.70;90.40
1956;DHT22;978;48.314;11.562;2022-09-06T01:46:17;22.70;90.40
1956;DHT22;978;48.314;11.562;2022-09-06T01:49:09;22.70;90.40
1956;DHT22;978;48.314;11.562;2022-09-06T01:51:51;22.70;90.30
1956;DHT22;978;48.314;11.562;2022-09-06T01:54:38;22.70;90.30
1956;DHT22;978;48.314;11.562;2022-09-06T01:57:23;22.70;90.30
1956;DHT22;978;48.314;11.562;2022-09-06T02:00:02;22.80;90.30
1956;DHT22;978;48.314;11.562;2022-09-06T02:02:39;22.70;90.30
1956;DHT22;978;48.314;11.562;2022-09-06T02:05:12;22.70;90.20
1956;DHT22;978;48.314;11.562;2022-09-06T02:07:42;22.80;90.30
1956;DHT22;978;48.314;11.562;2022-09-06T02:10:26;22.70;90.20
1956;DHT22;978;48.314;11.562;2022-09-06T02:12:58;22.70;90.20
1956;DHT22;978;48.314;11.562;2022-09-06T02:15:30;22.70;90.20
1956;DHT22;978;48.314;11.562;2022-09-06T02:18:01;22.70;90.10
1956;DHT22;978;48.314;11.562;2022-09-06T02:20:31;22.80;90.20
1956;DHT22;978;48.314;11.562;2022-09-06T02:23:02;22.70;90.10
1956;DHT22;978;48.314;11.562;2022-09-06T02:25:34;22.70;90.10
1956;DHT22;978;48.314;11.562;2022-09-06T02:28:02;22.70;90.10
1956;DHT22;978;48.314;11.562;2022-09-06T02:30:34;22.70;90.10
1956;DHT22;978;48.314;11.562;2022-09-06T02:33:07;22.70;90.00
1956;DHT22;978;48.314;11.562;2022-09-06T02:35:42;22.70;90.00
1956;DHT22;978;48.314;11.562;2022-09-06T02:38:10;22.70;90.00
1956;DHT22;978;48.314;11.562;2022-09-06T02:40:39;22.70;90.00
1956;DHT22;978;48.314;11.562;2022-09-06T02:43:08;22.70;90.00
1956;DHT22;978;48.314;11.562;2022-09-06T02:45:38;22.70;90.00
1956;DHT22;978;48.314;11.562;2022-09-06T02:48:04;22.70;90.00
1956;DHT22;978;48.314;11.562;2022-09-06T02:50:32;22.70;89.90
1956;DHT22;978;48.314;11.562;2022-09-06T02:53:01;22.70;90.00
1956;DHT22;978;48.314;11.562;2022-09-06T02:55:28;22.70;89.90
1956;DHT22;978;48.314;11.562;2022-09-06T02:57:55;22.70;89.90
1956;DHT22;978;48.314;11.562;2022-09-06T03:00:24;22.70;89.90
1956;DHT22;978;48.314;11.562;2022-09-06T03:02:52;22.70;89.80
1956;DHT22;978;48.314;11.562;2022-09-06T03:05:20;22.70;90.10
1956;DHT22;978;48.314;11.562;2022-09-06T03:07:47;22.70;89.80
1956;DHT22;978;48.314;11.562;2022-09-06T03:10:15;22.70;89.70
1956;DHT22;978;48.314;11.562;2022-09-06T03:12:44;22.70;89.70
1956;DHT22;978;48.314;11.562;2022-09-06T03:15:13;22.70;89.70
1956;DHT22;978;48.314;11.562;2022-09-06T03:17:42;22.70;89.70
1956;DHT22;978;48.314;11.562;2022-09-06T03:20:15;22.70;89.70
1956;DHT22;978;48.314;11.562;2022-09-06T03:22:43;22.70;89.80
1956;DHT22;978;48.314;11.562;2022-09-06T03:25:11;22.70;89.80
1956;DHT22;978;48.314;11.562;2022-09-06T03:27:40;22.70;89.80
1956;DHT22;978;48.314;11.562;2022-09-06T03:30:09;22.70;89.80
1956;DHT22;978;48.314;11.562;2022-09-06T03:32:37;22.70;89.80
1956;DHT22;978;48.314;11.562;2022-09-06T03:35:04;22.70;89.90
1956;DHT22;978;48.314;11.562;2022-09-06T03:37:34;22.70;90.20
1956;DHT22;978;48.314;11.562;2022-09-06T03:40:01;22.70;89.90
1956;DHT22;978;48.314;11.562;2022-09-06T03:42:27;22.70;89.90
1956;DHT22;978;48.314;11.562;2022-09-06T03:44:55;22.70;90.20
1956;DHT22;978;48.314;11.562;2022-09-06T03:47:24;22.70;90.00
1956;DHT22;978;48.314;11.562;2022-09-06T03:49:51;22.70;90.00
1956;DHT22;978;48.314;11.562;2022-09-06T03:52:19;22.70;90.00
1956;DHT22;978;48.314;11.562;2022-09-06T03:54:47;22.70;90.00
1956;DHT22;978;48.314;11.562;2022-09-06T03:57:15;22.70;90.00
1956;DHT22;978;48.314;11.562;2022-09-06T03:59:41;22.70;90.00
1956;DHT22;978;48.314;11.562;2022-09-06T04:02:10;22.70;90.00
1956;DHT22;978;48.314;11.562;2022-09-06T04:04:36;22.70;90.00
1956;DHT22;978;48.314;11.562;2022-09-06T04:07:03;22.70;90.00
1956;DHT22;978;48.314;11.562;2022-09-06T04:09:31;22.70;90.00
1956;DHT22;978;48.314;11.562;2022-09-06T04:12:02;22.70;90.00
1956;DHT22;978;48.314;11.562;2022-09-06T04:14:30;22.70;90.10
1956;DHT22;978;48.314;11.562;2022-09-06T04:16:58;22.70;90.10
1956;DHT22;978;48.314;11.562;2022-09-06T04:19:24;22.70;90.10
1956;DHT22;978;48.314;11.562;2022-09-06T04:21:51;22.70;90.10
1956;DHT22;978;48.314;11.562;2022-09-06T04:24:19;22.70;90.10
1956;DHT22;978;48.314;11.562;2022-09-06T04:26:47;22.70;90.10
1956;DHT22;978;48.314;11.562;2022-09-06T04:29:16;22.70;90.10
1956;DHT22;978;48.314;11.562;2022-09-06T04:31:44;22.70;90.10
1956;DHT22;978;48.314;11.562;2022-09-06T04:34:11;22.70;90.10
1956;DHT22;978;48.314;11.562;2022-09-06T04:36:39;22.70;90.10
1956;DHT22;978;48.314;11.562;2022-09-06T04:39:05;22.70;90.10
1956;DHT22;978;48.314;11.562;2022-09-06T04:41:34;22.70;90.10
1956;DHT22;978;48.314;11.562;2022-09-06T04:44:02;22.70;90.10
1956;DHT22;978;48.314;11.562;2022-09-06T04:46:32;22.70;90.10
1956;DHT22;978;48.314;11.562;2022-09-06T04:48:59;22.70;90.10
1956;DHT22;978;48.314;11.562;2022-09-06T04:51:27;22.70;90.10
1956;DHT22;978;48.314;11.562;2022-09-06T04:53:54;22.70;90.10
1956;DHT22;978;48.314;11.562;2022-09-06T04:56:23;22.70;90.10
1956;DHT22;978;48.314;11.562;2022-09-06T04:58:51;22.70;90.10
1956;DHT22;978;48.314;11.562;2022-09-06T05:01:18;22.70;90.10
1956;DHT22;978;48.314;11.562;2022-09-06T05:03:48;22.70;90.10
1956;DHT22;978;48.314;11.562;2022-09-06T05:06:19;22.70;90.10
1956;DHT22;978;48.314;11.562;2022-09-06T05:08:48;22.70;90.10
1956;DHT22;978;48.314;11.562;2022-09-06T05:11:16;22.70;90.10
1956;DHT22;978;48.314;11.562;2022-09-06T05:13:45;22.70;90.10
1956;DHT22;978;48.314;11.562;2022-09-06T05:16:12;22.70;90.10
1956;DHT22;978;48.314;11.562;2022-09-06T05:18:39;22.70;90.10
1956;DHT22;978;48.314;11.562;2022-09-06T05:21:10;22.70;90.20
1956;DHT22;978;48.314;11.562;2022-09-06T05:23:37;22.70;90.10
1956;DHT22;978;48.314;11.562;2022-09-06T05:26:04;22.70;90.10
1956;DHT22;978;48.314;11.562;2022-09-06T05:28:30;22.70;90.20
1956;DHT22;978;48.314;11.562;2022-09-06T05:31:07;22.70;90.20
1956;DHT22;978;48.314;11.562;2022-09-06T05:33:34;22.70;90.30
1956;DHT22;978;48.314;11.562;2022-09-06T05:36:02;22.70;90.40
1956;DHT22;978;48.314;11.562;2022-09-06T05:38:30;22.70;90.20
1956;DHT22;978;48.314;11.562;2022-09-06T05:40:57;22.70;90.20
1956;DHT22;978;48.314;11.562;2022-09-06T05:43:25;22.80;90.20
1956;DHT22;978;48.314;11.562;2022-09-06T05:45:52;22.70;90.20
1956;DHT22;978;48.314;11.562;2022-09-06T05:48:18;22.70;90.20
1956;DHT22;978;48.314;11.562;2022-09-06T05:50:45;22.70;90.20
1956;DHT22;978;48.314;11.562;2022-09-06T05:53:12;22.70;90.20
1956;DHT22;978;48.314;11.562;2022-09-06T05:55:41;22.70;90.20
1956;DHT22;978;48.314;11.562;2022-09-06T05:58:09;22.70;90.20
1956;DHT22;978;48.314;11.562;2022-09-06T06:00:37;22.70;90.20
1956;DHT22;978;48.314;11.562;2022-09-06T06:03:04;22.70;90.20
1956;DHT22;978;48.314;11.562;2022-09-06T06:05:31;22.70;90.20
1956;DHT22;978;48.314;11.562;2022-09-06T06:07:59;22.70;90.20
1956;DHT22;978;48.314;11.562;2022-09-06T06:10:27;22.70;90.30
1956;DHT22;978;48.314;11.562;2022-09-06T06:12:57;22.70;90.30
1956;DHT22;978;48.314;11.562;2022-09-06T06:15:24;22.70;90.30
1956;DHT22;978;48.314;11.562;2022-09-06T06:17:52;22.70;90.30
1956;DHT22;978;48.314;11.562;2022-09-06T06:20:19;22.70;90.40
1956;DHT22;978;48.314;11.562;2022-09-06T06:22:45;22.70;90.30
1956;DHT22;978;48.314;11.562;2022-09-06T06:25:13;22.70;90.30
1956;DHT22;978;48.314;11.562;2022-09-06T06:27:41;22.70;90.30
1956;DHT22;978;48.314;11.562;2022-09-06T06:30:10;22.70;90.30
1956;DHT22;978;48.314;11.562;2022-09-06T06:32:39;22.70;90.30
1956;DHT22;978;48.314;11.562;2022-09-06T06:35:07;22.70;90.30
1956;DHT22;978;48.314;11.562;2022-09-06T06:37:34;22.70;90.30
1956;DHT22;978;48.314;11.562;2022-09-06T06:40:01;22.70;90.30
1956;DHT22;978;48.314;11.562;2022-09-06T06:42:29;22.70;90.30
1956;DHT22;978;48.314;11.562;2022-09-06T06:44:57;22.70;90.30
1956;DHT22;978;48.314;11.562;2022-09-06T06:47:27;22.70;90.40
1956;DHT22;978;48.314;11.562;2022-09-06T06:49:54;22.70;90.40
1956;DHT22;978;48.314;11.562;2022-09-06T06:52:21;22.70;90.40
1956;DHT22;978;48.314;11.562;2022-09-06T06:54:48;22.80;90.40
1956;DHT22;978;48.314;11.562;2022-09-06T06:57:15;22.70;90.40
1956;DHT22;978;48.314;11.562;2022-09-06T06:59:42;22.80;90.40
1956;DHT22;978;48.314;11.562;2022-09-06T07:02:10;22.80;90.50
1956;DHT22;978;48.314;11.562;2022-09-06T07:04:41;22.80;90.50
1956;DHT22;978;48.314;11.562;2022-09-06T07:07:09;22.80;90.50
1956;DHT22;978;48.314;11.562;2022-09-06T07:09:36;22.80;90.50
1956;DHT22;978;48.314;11.562;2022-09-06T07:12:02;22.80;90.50
1956;DHT22;978;48.314;11.562;2022-09-06T07:14:31;22.80;90.50
1956;DHT22;978;48.314;11.562;2022-09-06T07:16:57;22.80;90.50
1956;DHT22;978;48.314;11.562;2022-09-06T07:19:25;22.80;90.50
1956;DHT22;978;48.314;11.562;2022-09-06T07:21:53;22.80;90.80
1956;DHT22;978;48.314;11.562;2022-09-06T07:24:22;22.80;90.60
1956;DHT22;978;48.314;11.562;2022-09-06T07:26:48;22.80;90.60
1956;DHT22;978;48.314;11.562;2022-09-06T07:29:16;22.80;90.60
1956;DHT22;978;48.314;11.562;2022-09-06T07:31:43;22.80;90.60
1956;DHT22;978;48.314;11.562;2022-09-06T07:34:10;22.80;90.70
1956;DHT22;978;48.314;11.562;2022-09-06T07:36:38;22.80;90.70
1956;DHT22;978;48.314;11.562;2022-09-06T07:39:09;22.80;90.70
1956;DHT22;978;48.314;11.562;2022-09-06T07:41:36;22.80;90.70
1956;DHT22;978;48.314;11.562;2022-09-06T07:44:02;22.80;90.70
1956;DHT22;978;48.314;11.562;2022-09-06T07:46:30;22.80;90.70
1956;DHT22;978;48.314;11.562;2022-09-06T07:48:57;22.80;91.00
1956;DHT22;978;48.314;11.562;2022-09-06T07:51:25;22.80;90.70
1956;DHT22;978;48.314;11.562;2022-09-06T07:53:53;22.80;90.70
1956;DHT22;978;48.314;11.562;2022-09-06T07:56:23;22.80;91.00
1956;DHT22;978;48.314;11.562;2022-09-06T07:58:50;22.80;90.70
1956;DHT22;978;48.314;11.562;2022-09-06T08:01:28;22.80;90.80
1956;DHT22;978;48.314;11.562;2022-09-06T08:03:57;22.80;90.80
1956;DHT22;978;48.314;11.562;2022-09-06T08:06:26;22.80;90.80
1956;DHT22;978;48.314;11.562;2022-09-06T08:08:53;22.80;90.80
1956;DHT22;978;48.314;11.562;2022-09-06T08:11:24;22.80;90.80
1956;DHT22;978;48.314;11.562;2022-09-06T08:13:52;22.80;90.80
1956;DHT22;978;48.314;11.562;2022-09-06T08:16:23;22.80;90.80
1956;DHT22;978;48.314;11.562;2022-09-06T08:18:51;22.80;90.70
1956;DHT22;978;48.314;11.562;2022-09-06T08:21:21;22.80;90.70
1956;DHT22;978;48.314;11.562;2022-09-06T08:23:50;22.80;90.70
1956;DHT22;978;48.314;11.562;2022-09-06T08:26:19;22.80;90.70
1956;DHT22;978;48.314;11.562;2022-09-06T08:28:52;22.90;90.80
1956;DHT22;978;48.314;11.562;2022-09-06T08:31:20;22.80;90.80
1956;DHT22;978;48.314;11.562;2022-09-06T08:33:47;22.80;90.70
1956;DHT22;978;48.314;11.562;2022-09-06T08:36:15;22.90;90.80
1956;DHT22;978;48.314;11.562;2022-09-06T08:38:42;22.90;90.80
1956;DHT22;978;48.314;11.562;2022-09-06T08:41:17;22.80;90.80
1956;DHT22;978;48.314;11.562;2022-09-06T08:43:51;22.80;90.80
1956;DHT22;978;48.314;11.562;2022-09-06T08:46:22;22.80;90.80
1956;DHT22;978;48.314;11.562;2022-09-06T08:48:53;22.80;90.80
1956;DHT22;978;48.314;11.562;2022-09-06T08:51:45;22.80;90.80
1956;DHT22;978;48.314;11.562;2022-09-06T08:54:23;22.80;90.80
1956;DHT22;978;48.314;11.562;2022-09-06T08:57:02;22.80;90.80
1956;DHT22;978;48.314;11.562;2022-09-06T08:59:36;22.80;90.80
1956;DHT22;978;48.314;11.562;2022-09-06T09:02:10;22.80;90.80
1956;DHT22;978;48.314;11.562;2022-09-06T09:04:42;22.80;90.80
1956;DHT22;978;48.314;11.562;2022-09-06T09:07:35;22.80;90.90
1956;DHT22;978;48.314;11.562;2022-09-06T09:10:10;22.80;90.90
1956;DHT22;978;48.314;11.562;2022-09-06T09:12:43;22.80;90.80
1956;DHT22;978;48.314;11.562;2022-09-06T09:15:17;22.80;90.90
1956;DHT22;978;48.314;11.562;2022-09-06T09:17:46;22.80;90.90
1956;DHT22;978;48.314;11.562;2022-09-06T09:20:16;22.80;90.90
1956;DHT22;978;48.314;11.562;2022-09-06T09:22:43;22.80;90.90
1956;DHT22;978;48.314;11.562;2022-09-06T09:25:17;22.80;90.90
1956;DHT22;978;48.314;11.562;2022-09-06T09:27:44;22.80;90.90
1956;DHT22;978;48.314;11.562;2022-09-06T09:30:16;22.80;90.90
1956;DHT22;978;48.314;11.562;2022-09-06T09:32:44;22.80;90.90
1956;DHT22;978;48.314;11.562;2022-09-06T09:35:24;22.80;90.90
1956;DHT22;978;48.314;11.562;2022-09-06T09:38:05;22.80;90.90
1956;DHT22;978;48.314;11.562;2022-09-06T09:40:38;22.80;90.90
1956;DHT22;978;48.314;11.562;2022-09-06T09:43:13;22.80;90.90
1956;DHT22;978;48.314;11.562;2022-09-06T09:45:43;22.80;90.90
1956;DHT22;978;48.314;11.562;2022-09-06T09:48:20;22.80;90.90
1956;DHT22;978;48.314;11.562;2022-09-06T09:50:49;22.80;90.90
1956;DHT22;978;48.314;11.562;2022-09-06T09:53:20;22.80;90.90
1956;DHT22;978;48.314;11.562;2022-09-06T09:55:47;22.80;90.90
1956;DHT22;978;48.314;11.562;2022-09-06T09:58:21;22.80;90.90
1956;DHT22;978;48.314;11.562;2022-09-06T10:01:09;22.80;90.90
1956;DHT22;978;48.314;11.562;2022-09-06T10:03:36;22.80;90.90
1956;DHT22;978;48.314;11.562;2022-09-06T10:06:03;22.80;90.90
1956;DHT22;978;48.314;11.562;2022-09-06T10:08:32;22.80;90.90
1956;DHT22;978;48.314;11.562;2022-09-06T10:11:00;22.80;91.00
1956;DHT22;978;48.314;11.562;2022-09-06T10:13:29;22.80;90.90
1956;DHT22;978;48.314;11.562;2022-09-06T10:15:59;22.80;91.00
1956;DHT22;978;48.314;11.562;2022-09-06T10:18:30;22.80;90.90
1956;DHT22;978;48.314;11.562;2022-09-06T10:21:00;22.80;91.00
1956;DHT22;978;48.314;11.562;2022-09-06T10:23:36;22.80;91.00
1956;DHT22;978;48.314;11.562;2022-09-06T10:26:08;22.80;91.00
1956;DHT22;978;48.314;11.562;2022-09-06T10:28:41;22.80;90.90
1956;DHT22;978;48.314;11.562;2022-09-06T10:31:28;22.70;90.90
1956;DHT22;978;48.314;11.562;2022-09-06T10:34:08;22.80;91.00
1956;DHT22;978;48.314;11.562;2022-09-06T10:36:37;22.80;91.00
1956;DHT22;978;48.314;11.562;2022-09-06T10:39:15;22.80;91.00
1956;DHT22;978;48.314;11.562;2022-09-06T10:41:58;22.80;91.00
1956;DHT22;978;48.314;11.562;2022-09-06T10:44:39;22.80;91.00
1956;DHT22;978;48.314;11.562;2022-09-06T10:47:12;22.80;91.00
1956;DHT22;978;48.314;11.562;2022-09-06T10:49:44;22.80;91.00
1956;DHT22;978;48.314;11.562;2022-09-06T10:52:19;22.80;91.00
1956;DHT22;978;48.314;11.562;2022-09-06T10:54:48;22.80;91.00
1956;DHT22;978;48.314;11.562;2022-09-06T10:57:20;22.80;91.00
1956;DHT22;978;48.314;11.562;2022-09-06T10:59:51;22.80;91.00
1956;DHT22;978;48.314;11.562;2022-09-06T11:02:34;22.80;91.00
1956;DHT22;978;48.314;11.562;2022-09-06T11:05:07;22.80;91.00
1956;DHT22;978;48.314;11.562;2022-09-06T11:07:40;22.80;91.00
1956;DHT22;978;48.314;11.562;2022-09-06T11:10:15;22.80;91.00
1956;DHT22;978;48.314;11.562;2022-09-06T11:12:49;22.80;91.00
1956;DHT22;978;48.314;11.562;2022-09-06T11:15:22;22.80;91.00
1956;DHT22;978;48.314;11.562;2022-09-06T11:17:55;22.80;91.00
1956;DHT22;978;48.314;11.562;2022-09-06T11:20:27;22.80;91.00
1956;DHT22;978;48.314;11.562;2022-09-06T11:26:24;22.80;91.00
1956;DHT22;978;48.314;11.562;2022-09-06T11:28:56;22.80;91.30
1956;DHT22;978;48.314;11.562;2022-09-06T11:31:26;22.80;91.00
1956;DHT22;978;48.314;11.562;2022-09-06T11:34:03;22.80;91.00
1956;DHT22;978;48.314;11.562;2022-09-06T11:36:37;22.80;91.00
1956;DHT22;978;48.314;11.562;2022-09-06T11:39:08;22.80;91.00
1956;DHT22;978;48.314;11.562;2022-09-06T11:41:38;22.80;91.00
1956;DHT22;978;48.314;11.562;2022-09-06T11:44:07;22.80;91.00
1956;DHT22;978;48.314;11.562;2022-09-06T11:46:59;22.80;91.00
1956;DHT22;978;48.314;11.562;2022-09-06T11:49:32;22.80;91.00
1956;DHT22;978;48.314;11.562;2022-09-06T11:54:46;22.80;91.00
1956;DHT22;978;48.314;11.562;2022-09-06T11:57:16;22.80;91.00
1956;DHT22;978;48.314;11.562;2022-09-06T11:59:53;22.80;91.00
1956;DHT22;978;48.314;11.562;2022-09-06T12:02:32;22.80;91.00
1956;DHT22;978;48.314;11.562;2022-09-06T12:05:21;22.80;91.00
1956;DHT22;978;48.314;11.562;2022-09-06T12:08:26;22.80;91.00
1956;DHT22;978;48.314;11.562;2022-09-06T12:11:30;22.80;91.10
1956;DHT22;978;48.314;11.562;2022-09-06T12:14:01;22.80;91.10
1956;DHT22;978;48.314;11.562;2022-09-06T12:19:57;22.80;91.10
1956;DHT22;978;48.314;11.562;2022-09-06T12:23:00;22.80;91.10
1956;DHT22;978;48.314;11.562;2022-09-06T12:25:56;22.80;91.10
1956;DHT22;978;48.314;11.562;2022-09-06T12:28:36;22.80;91.10
1956;DHT22;978;48.314;11.562;2022-09-06T12:31:27;22.80;91.10
1956;DHT22;978;48.314;11.562;2022-09-06T12:33:57;22.80;91.10
1956;DHT22;978;48.314;11.562;2022-09-06T12:36:32;22.80;91.10
1956;DHT22;978;48.314;11.562;2022-09-06T12:39:02;22.80;91.10
1956;DHT22;978;48.314;11.562;2022-09-06T12:41:37;22.80;91.10
1956;DHT22;978;48.314;11.562;2022-09-06T12:44:06;22.90;91.10
1956;DHT22;978;48.314;11.562;2022-09-06T12:46:35;22.90;91.10
1956;DHT22;978;48.314;11.562;2022-09-06T12:49:06;22.90;91.10
1956;DHT22;978;48.314;11.562;2022-09-06T12:51:35;22.90;91.10
1956;DHT22;978;48.314;11.562;2022-09-06T12:54:06;22.90;91.20
1956;DHT22;978;48.314;11.562;2022-09-06T12:56:43;22.90;91.10
1956;DHT22;978;48.314;11.562;2022-09-06T12:59:15;22.90;91.10
1956;DHT22;978;48.314;11.562;2022-09-06T13:01:48;22.90;91.10
1956;DHT22;978;48.314;11.562;2022-09-06T13:04:25;22.90;91.30
1956;DHT22;978;48.314;11.562;2022-09-06T13:06:54;22.90;91.20
1956;DHT22;978;48.314;11.562;2022-09-06T13:09:24;22.90;91.20
1956;DHT22;978;48.314;11.562;2022-09-06T13:12:02;22.90;91.30
1956;DHT22;978;48.314;11.562;2022-09-06T13:14:32;22.90;91.30
1956;DHT22;978;48.314;11.562;2022-09-06T13:17:01;22.90;91.30
1956;DHT22;978;48.314;11.562;2022-09-06T13:19:32;22.90;91.40
1956;DHT22;978;48.314;11.562;2022-09-06T13:22:02;22.90;91.40
1956;DHT22;978;48.314;11.562;2022-09-06T13:24:45;22.90;91.50
1956;DHT22;978;48.314;11.562;2022-09-06T13:27:33;22.90;91.40
1956;DHT22;978;48.314;11.562;2022-09-06T13:30:05;22.90;91.50
1956;DHT22;978;48.314;11.562;2022-09-06T13:32:45;22.90;91.50
1956;DHT22;978;48.314;11.562;2022-09-06T13:35:21;22.90;91.50
1956;DHT22;978;48.314;11.562;2022-09-06T13:37:50;22.90;91.50
1956;DHT22;978;48.314;11.562;2022-09-06T13:40:36;22.90;91.60
1956;DHT22;978;48.314;11.562;2022-09-06T13:43:10;22.90;91.60
1956;DHT22;978;48.314;11.562;2022-09-06T13:45:41;22.90;91.60
1956;DHT22;978;48.314;11.562;2022-09-06T13:48:10;22.90;91.60
1956;DHT22;978;48.314;11.562;2022-09-06T13:50:41;22.90;91.60
1956;DHT22;978;48.314;11.562;2022-09-06T13:53:09;22.90;91.60
1956;DHT22;978;48.314;11.562;2022-09-06T13:55:37;22.90;91.60
1956;DHT22;978;48.314;11.562;2022-09-06T13:58:10;22.90;91.60
1956;DHT22;978;48.314;11.562;2022-09-06T14:00:41;22.80;91.60
1956;DHT22;978;48.314;11.562;2022-09-06T14:03:12;22.90;91.60
1956;DHT22;978;48.314;11.562;2022-09-06T14:05:42;22.90;91.60
1956;DHT22;978;48.314;11.562;2022-09-06T14:08:10;22.90;91.50
1956;DHT22;978;48.314;11.562;2022-09-06T14:10:39;22.80;91.50
1956;DHT22;978;48.314;11.562;2022-09-06T14:13:08;22.90;91.60
1956;DHT22;978;48.314;11.562;2022-09-06T14:15:37;22.90;91.50
1956;DHT22;978;48.314;11.562;2022-09-06T14:18:05;22.90;91.50
1956;DHT22;978;48.314;11.562;2022-09-06T14:20:33;22.90;91.50
1956;DHT22;978;48.314;11.562;2022-09-06T14:23:00;22.90;91.50
1956;DHT22;978;48.314;11.562;2022-09-06T14:25:29;22.90;91.60
1956;DHT22;978;48.314;11.562;2022-09-06T14:27:57;22.90;91.50
1956;DHT22;978;48.314;11.562;2022-09-06T14:30:27;22.80;91.50
1956;DHT22;978;48.314;11.562;2022-09-06T14:32:56;22.80;91.50
1956;DHT22;978;48.314;11.562;2022-09-06T14:35:24;22.90;91.50
1956;DHT22;978;48.314;11.562;2022-09-06T14:37:53;22.90;91.50
1956;DHT22;978;48.314;11.562;2022-09-06T14:40:33;22.90;91.50
1956;DHT22;978;48.314;11.562;2022-09-06T14:43:02;22.90;91.50
1956;DHT22;978;48.314;11.562;2022-09-06T14:45:32;22.90;91.50
1956;DHT22;978;48.314;11.562;2022-09-06T14:48:00;22.90;91.50
1956;DHT22;978;48.314;11.562;2022-09-06T14:50:28;22.80;91.50
1956;DHT22;978;48.314;11.562;2022-09-06T14:52:56;22.80;91.50
1956;DHT22;978;48.314;11.562;2022-09-06T14:55:25;22.80;91.50
1956;DHT22;978;48.314;11.562;2022-09-06T14:57:53;22.90;91.50
1956;DHT22;978;48.314;11.562;2022-09-06T15:00:21;22.90;91.60
1956;DHT22;978;48.314;11.562;2022-09-06T15:02:51;22.90;91.50
1956;DHT22;978;48.314;11.562;2022-09-06T15:05:19;22.90;91.60
1956;DHT22;978;48.314;11.562;2022-09-06T15:07:47;22.90;91.80
1956;DHT22;978;48.314;11.562;2022-09-06T15:10:16;22.90;91.60
1956;DHT22;978;48.314;11.562;2022-09-06T15:12:44;22.90;91.60
1956;DHT22;978;48.314;11.562;2022-09-06T15:15:11;22.90;91.60
1956;DHT22;978;48.314;11.562;2022-09-06T15:17:42;22.90;91.70
1956;DHT22;978;48.314;11.562;2022-09-06T15:20:16;22.90;91.80
1956;DHT22;978;48.314;11.562;2022-09-06T15:22:44;22.80;92.20
1956;DHT22;978;48.314;11.562;2022-09-06T15:25:11;22.80;92.40
1956;DHT22;978;48.314;11.562;2022-09-06T15:27:39;22.80;92.70
1956;DHT22;978;48.314;11.562;2022-09-06T15:30:07;22.80;92.80
1956;DHT22;978;48.314;11.562;2022-09-06T15:32:36;22.80;92.90
1956;DHT22;978;48.314;11.562;2022-09-06T15:35:05;22.90;93.10
1956;DHT22;978;48.314;11.562;2022-09-06T15:37:35;22.80;93.10
1956;DHT22;978;48.314;11.562;2022-09-06T15:40:03;22.90;93.20
1956;DHT22;978;48.314;11.562;2022-09-06T15:42:32;22.80;93.60
1956;DHT22;978;48.314;11.562;2022-09-06T15:45:00;22.80;93.20
1956;DHT22;978;48.314;11.562;2022-09-06T15:47:28;22.80;93.50
1956;DHT22;978;48.314;11.562;2022-09-06T15:49:56;22.80;93.60
1956;DHT22;978;48.314;11.562;2022-09-06T15:52:24;22.80;93.50
1956;DHT22;978;48.314;11.562;2022-09-06T15:54:54;22.80;93.50
1956;DHT22;978;48.314;11.562;2022-09-06T15:57:39;22.80;93.90
1956;DHT22;978;48.314;11.562;2022-09-06T16:00:08;22.80;93.60
1956;DHT22;978;48.314;11.562;2022-09-06T16:02:37;22.90;94.00
1956;DHT22;978;48.314;11.562;2022-09-06T16:05:05;22.80;93.40
1956;DHT22;978;48.314;11.562;2022-09-06T16:07:35;22.80;93.70
1956;DHT22;978;48.314;11.562;2022-09-06T16:10:07;22.80;93.50
1956;DHT22;978;48.314;11.562;2022-09-06T16:12:37;22.90;93.40
1956;DHT22;978;48.314;11.562;2022-09-06T16:15:07;22.90;93.60
1956;DHT22;978;48.314;11.562;2022-09-06T16:17:35;22.90;93.40
1956;DHT22;978;48.314;11.562;2022-09-06T16:20:03;22.80;93.70
1956;DHT22;978;48.314;11.562;2022-09-06T16:22:32;22.90;93.40
1956;DHT22;978;48.314;11.562;2022-09-06T16:25:00;22.90;93.60
1956;DHT22;978;48.314;11.562;2022-09-06T16:27:29;22.80;93.20
1956;DHT22;978;48.314;11.562;2022-09-06T16:29:58;22.80;93.20
1956;DHT22;978;48.314;11.562;2022-09-06T16:32:25;22.80;93.20
1956;DHT22;978;48.314;11.562;2022-09-06T16:34:53;22.90;93.20
1956;DHT22;978;48.314;11.562;2022-09-06T16:37:23;22.90;93.20
1956;DHT22;978;48.314;11.562;2022-09-06T16:39:51;22.90;93.00
1956;DHT22;978;48.314;11.562;2022-09-06T16:42:19;22.90;93.10